createdAt,value
2019-02-11T00:02:01.691Z,2.50
2019-02-11T00:04:31.017Z,2.20
2019-02-11T00:07:00.337Z,2.67
2019-02-11T00:09:29.626Z,2.40
2019-02-11T00:11:58.993Z,2.60
2019-02-11T00:14:28.278Z,2.70
2019-02-11T00:16:57.613Z,2.37
2019-02-11T00:19:26.958Z,2.50
2019-02-11T00:21:56.242Z,2.50
2019-02-11T00:24:25.682Z,2.17
2019-02-11T00:26:55.038Z,2.27
2019-02-11T00:29:24.348Z,2.10
2019-02-11T00:31:53.722Z,2.13
2019-02-11T00:34:23.040Z,2.07
2019-02-11T00:36:52.410Z,2.00
2019-02-11T00:39:21.684Z,2.00
2019-02-11T00:41:50.954Z,1.73
2019-02-11T00:44:20.567Z,1.80
2019-02-11T00:46:50.121Z,2.00
2019-02-11T00:49:19.417Z,1.73
2019-02-11T00:51:48.767Z,1.73
2019-02-11T00:54:18.063Z,1.80
2019-02-11T00:56:48.471Z,1.80
2019-02-11T00:59:17.775Z,1.90
2019-02-11T01:01:47.075Z,2.00
2019-02-11T01:04:16.317Z,1.73
2019-02-11T01:06:45.631Z,2.03
2019-02-11T01:09:14.939Z,2.10
2019-02-11T01:11:44.495Z,2.00
2019-02-11T01:14:14.164Z,2.13
2019-02-11T01:16:43.439Z,2.37
2019-02-11T01:19:12.736Z,2.33
2019-02-11T01:21:42.021Z,1.90
2019-02-11T01:24:11.308Z,2.30
2019-02-11T01:26:40.609Z,2.50
2019-02-11T01:29:09.911Z,1.80
2019-02-11T01:31:39.235Z,2.00
2019-02-11T01:34:08.559Z,1.97
2019-02-11T01:36:37.909Z,1.90
2019-02-11T01:39:07.618Z,2.07
2019-02-11T01:41:36.890Z,2.10
2019-02-11T01:44:06.162Z,1.90
2019-02-11T01:46:35.448Z,2.00
2019-02-11T01:49:04.708Z,2.00
2019-02-11T01:51:34.031Z,1.70
2019-02-11T01:54:03.325Z,1.53
2019-02-11T01:56:32.588Z,1.50
2019-02-11T01:59:02.194Z,1.50
2019-02-11T02:01:31.441Z,1.40
2019-02-11T02:04:00.781Z,1.50
2019-02-11T02:06:30.060Z,1.40
2019-02-11T02:08:59.508Z,1.30
2019-02-11T02:11:28.801Z,1.00
2019-02-11T02:13:58.078Z,1.50
2019-02-11T02:16:27.418Z,1.80
2019-02-11T02:18:56.714Z,1.70
2019-02-11T02:21:26.008Z,1.37
2019-02-11T02:23:55.524Z,1.87
2019-02-11T02:26:24.848Z,1.80
2019-02-11T02:28:54.145Z,1.80
2019-02-11T02:31:23.463Z,2.00
2019-02-11T02:33:52.742Z,2.20
2019-02-11T02:36:22.046Z,2.10
2019-02-11T02:38:51.359Z,1.87
2019-02-11T02:41:20.900Z,2.00
2019-02-11T02:43:55.697Z,2.13
2019-02-11T02:46:22.828Z,2.20
2019-02-11T02:48:52.189Z,1.85
2019-02-11T02:51:21.454Z,2.10
2019-02-11T02:53:50.755Z,1.70
2019-02-11T02:56:20.070Z,2.00
2019-02-11T02:58:49.384Z,2.00
2019-02-11T03:01:18.658Z,1.90
2019-02-11T03:03:47.954Z,2.10
2019-02-11T03:06:17.270Z,1.90
2019-02-11T03:08:46.656Z,2.40
2019-02-11T03:11:15.958Z,2.17
2019-02-11T03:13:45.221Z,2.50
2019-02-11T03:16:14.823Z,2.73
2019-02-11T03:18:44.152Z,3.23
2019-02-11T03:21:13.439Z,4.03
2019-02-11T03:23:43.163Z,4.10
2019-02-11T03:26:12.539Z,4.23
2019-02-11T03:28:41.839Z,4.35
2019-02-11T03:31:11.180Z,4.10
2019-02-11T03:33:40.456Z,4.57
2019-02-11T03:36:09.780Z,5.30
2019-02-11T03:38:39.050Z,5.30
2019-02-11T03:41:08.518Z,5.37
2019-02-11T03:43:37.809Z,4.77
2019-02-11T03:46:07.141Z,5.17
2019-02-11T03:48:36.476Z,5.33
2019-02-11T03:51:05.786Z,5.90
2019-02-11T03:53:35.179Z,5.70
2019-02-11T03:56:04.631Z,5.90
2019-02-11T03:58:33.890Z,5.90
2019-02-11T04:01:03.191Z,6.63
2019-02-11T04:03:32.477Z,6.73
2019-02-11T04:06:01.809Z,6.30
2019-02-11T04:08:31.277Z,6.30
2019-02-11T04:11:00.574Z,6.30
2019-02-11T04:13:29.918Z,5.73
2019-02-11T04:15:59.200Z,6.00
2019-02-11T04:18:28.537Z,5.87
2019-02-11T04:20:57.952Z,5.50
2019-02-11T04:23:27.383Z,5.43
2019-02-11T04:25:56.672Z,5.73
2019-02-11T04:28:25.979Z,5.33
2019-02-11T04:30:55.319Z,5.40
2019-02-11T04:33:24.574Z,5.50
2019-02-11T04:35:54.273Z,4.90
2019-02-11T04:38:23.594Z,4.63
2019-02-11T04:40:52.874Z,4.80
2019-02-11T04:43:22.141Z,4.87
2019-02-11T04:45:51.466Z,4.90
2019-02-11T04:48:20.788Z,4.67
2019-02-11T04:50:50.106Z,4.77
2019-02-11T04:53:19.381Z,3.90
2019-02-11T04:55:48.714Z,4.53
2019-02-11T04:58:17.997Z,4.50
2019-02-11T05:00:47.570Z,4.47
2019-02-11T05:03:17.296Z,4.40
2019-02-11T05:05:46.595Z,4.40
2019-02-11T05:08:16.004Z,4.47
2019-02-11T05:10:45.432Z,4.83
2019-02-11T05:13:14.726Z,4.17
2019-02-11T05:15:44.011Z,4.17
2019-02-11T05:18:13.346Z,3.77
2019-02-11T05:20:42.753Z,4.17
2019-02-11T05:23:12.018Z,4.47
2019-02-11T05:25:41.278Z,4.53
2019-02-11T05:28:10.650Z,4.27
2019-02-11T05:30:39.951Z,4.60
2019-02-11T05:33:09.328Z,4.70
2019-02-11T05:35:38.694Z,4.73
2019-02-11T05:38:07.973Z,4.63
2019-02-11T05:40:37.655Z,3.97
2019-02-11T05:43:06.977Z,4.97
2019-02-11T05:45:36.270Z,4.83
2019-02-11T05:48:05.599Z,4.78
2019-02-11T05:50:34.912Z,5.10
2019-02-11T05:53:04.163Z,5.17
2019-02-11T05:55:33.413Z,5.43
2019-02-11T05:58:02.746Z,4.73
2019-02-11T06:00:32.125Z,4.43
2019-02-11T06:03:01.442Z,4.53
2019-02-11T06:05:30.787Z,4.97
2019-02-11T06:08:00.215Z,5.07
2019-02-11T06:10:29.514Z,5.30
2019-02-11T06:12:58.905Z,5.10
2019-02-11T06:15:28.207Z,4.17
2019-02-11T06:17:57.493Z,5.33
2019-02-11T06:20:26.785Z,4.80
2019-02-11T06:22:56.135Z,4.77
2019-02-11T06:25:25.501Z,5.07
2019-02-11T06:27:54.835Z,4.90
2019-02-11T06:30:24.492Z,5.00
2019-02-11T06:32:53.779Z,5.43
2019-02-11T06:35:23.098Z,5.60
2019-02-11T06:37:52.432Z,4.40
2019-02-11T06:40:21.820Z,4.87
2019-02-11T06:42:51.121Z,5.20
2019-02-11T06:45:20.387Z,4.90
2019-02-11T06:47:49.718Z,5.93
2019-02-11T06:50:19.098Z,5.23
2019-02-11T06:52:48.433Z,5.13
2019-02-11T06:55:17.739Z,4.77
2019-02-11T06:57:47.019Z,4.90
2019-02-11T07:00:16.696Z,4.73
2019-02-11T07:02:46.199Z,4.60
2019-02-11T07:05:15.814Z,4.57
2019-02-11T07:07:45.163Z,4.60
2019-02-11T07:10:14.782Z,4.43
2019-02-11T07:12:44.157Z,4.53
2019-02-11T07:15:21.266Z,4.77
2019-02-11T07:17:44.596Z,4.63
2019-02-11T07:20:13.912Z,4.23
2019-02-11T07:22:43.217Z,4.30
2019-02-11T07:25:12.542Z,4.40
2019-02-11T07:27:42.258Z,4.00
2019-02-11T07:30:11.837Z,3.70
2019-02-11T07:32:41.201Z,4.70
2019-02-11T07:35:10.484Z,4.00
2019-02-11T07:37:39.768Z,4.23
2019-02-11T07:40:09.552Z,4.30
2019-02-11T07:42:56.046Z,4.37
2019-02-11T07:45:34.997Z,4.47
2019-02-11T07:48:04.275Z,4.30
2019-02-11T07:50:33.713Z,4.70
2019-02-11T07:53:03.061Z,3.80
2019-02-11T07:55:32.519Z,4.60
2019-02-11T07:58:01.842Z,4.00
2019-02-11T08:00:31.235Z,4.30
2019-02-11T08:03:00.758Z,4.00
2019-02-11T08:05:30.111Z,4.43
2019-02-11T08:07:59.381Z,4.03
2019-02-11T08:10:31.204Z,4.73
2019-02-11T08:13:00.479Z,4.80
2019-02-11T08:15:37.234Z,4.40
2019-02-11T08:18:00.907Z,4.37
2019-02-11T08:20:30.231Z,4.87
2019-02-11T08:22:59.533Z,4.67
2019-02-11T08:25:28.872Z,4.70
2019-02-11T08:27:58.175Z,4.27
2019-02-11T08:30:27.498Z,4.60
2019-02-11T08:32:56.902Z,4.50
2019-02-11T08:35:26.487Z,4.57
2019-02-11T08:37:55.832Z,4.37
2019-02-11T08:40:25.161Z,4.80
2019-02-11T08:42:54.516Z,4.50
2019-02-11T08:45:24.388Z,5.63
2019-02-11T08:47:53.769Z,4.10
2019-02-11T08:50:23.415Z,4.07
2019-02-11T08:52:52.873Z,4.10
2019-02-11T08:55:22.162Z,4.37
2019-02-11T08:57:51.583Z,4.53
2019-02-11T09:00:20.897Z,4.37
2019-02-11T09:02:50.239Z,4.70
2019-02-11T09:05:19.865Z,4.23
2019-02-11T09:07:49.186Z,4.47
2019-02-11T09:10:18.504Z,4.00
2019-02-11T09:12:48.167Z,4.40
2019-02-11T09:15:17.507Z,4.23
2019-02-11T09:17:46.819Z,3.90
2019-02-11T09:20:16.146Z,3.90
2019-02-11T09:22:45.470Z,4.13
2019-02-11T09:25:15.059Z,3.37
2019-02-11T09:27:44.343Z,3.70
2019-02-11T09:30:15.102Z,4.10
2019-02-11T09:32:44.408Z,3.17
2019-02-11T09:35:13.815Z,3.97
2019-02-11T09:37:43.135Z,4.10
2019-02-11T09:40:13.289Z,3.90
2019-02-11T09:42:42.608Z,4.40
2019-02-11T09:45:15.324Z,3.73
2019-02-11T09:47:44.673Z,4.07
2019-02-11T09:50:32.663Z,4.40
2019-02-11T09:53:01.980Z,3.77
2019-02-11T09:55:32.537Z,4.10
2019-02-11T09:58:01.937Z,3.63
2019-02-11T10:00:31.397Z,4.10
2019-02-11T10:03:00.696Z,3.37
2019-02-11T10:05:29.976Z,3.80
2019-02-11T10:07:59.283Z,3.87
2019-02-11T10:10:28.668Z,3.67
2019-02-11T10:12:58.085Z,2.83
2019-02-11T10:15:27.654Z,3.30
2019-02-11T10:17:56.999Z,3.80
2019-02-11T10:20:26.906Z,3.80
2019-02-11T10:22:56.338Z,3.10
2019-02-11T10:25:26.828Z,3.67
2019-02-11T10:27:59.162Z,3.53
2019-02-11T10:30:28.553Z,3.80
2019-02-11T10:32:57.934Z,3.67
2019-02-11T10:35:27.415Z,3.37
2019-02-11T10:37:56.697Z,3.20
2019-02-11T10:40:26.003Z,3.33
2019-02-11T10:42:55.514Z,3.23
2019-02-11T10:45:24.966Z,3.60
2019-02-11T10:47:54.339Z,3.47
2019-02-11T10:50:23.648Z,3.00
2019-02-11T10:52:52.926Z,3.37
2019-02-11T10:55:22.295Z,3.03
2019-02-11T10:57:51.633Z,3.40
2019-02-11T11:00:22.875Z,3.23
2019-02-11T11:02:52.153Z,3.30
2019-02-11T11:05:21.507Z,3.70
2019-02-11T11:07:50.925Z,3.37
2019-02-11T11:10:26.083Z,3.80
2019-02-11T11:12:55.375Z,3.43
2019-02-11T11:15:24.773Z,3.40
2019-02-11T11:17:54.039Z,2.90
2019-02-11T11:20:23.645Z,3.30
2019-02-11T11:22:52.987Z,4.13
2019-02-11T11:25:22.318Z,3.60
2019-02-11T11:27:51.624Z,3.27
2019-02-11T11:30:21.095Z,3.70
2019-02-11T11:32:50.402Z,3.60
2019-02-11T11:35:19.679Z,3.53
2019-02-11T11:37:48.948Z,3.70
2019-02-11T11:40:18.530Z,3.60
2019-02-11T11:42:47.811Z,3.60
2019-02-11T11:45:18.065Z,3.93
2019-02-11T11:47:47.577Z,3.80
2019-02-11T11:50:17.419Z,4.13
2019-02-11T11:52:46.847Z,4.17
2019-02-11T11:55:16.382Z,4.30
2019-02-11T11:57:45.700Z,4.20
2019-02-11T12:00:26.194Z,3.70
2019-02-11T12:03:02.598Z,4.20
2019-02-11T12:05:26.611Z,3.90
2019-02-11T12:07:55.984Z,3.60
2019-02-11T12:10:25.448Z,4.00
2019-02-11T12:12:54.791Z,3.80
2019-02-11T12:15:25.115Z,3.70
2019-02-11T12:17:54.784Z,3.70
2019-02-11T12:20:24.276Z,3.90
2019-02-11T12:22:53.697Z,3.70
2019-02-11T12:25:23.076Z,3.50
2019-02-11T12:27:52.478Z,3.27
2019-02-11T12:30:24.056Z,3.77
2019-02-11T12:32:55.413Z,3.83
2019-02-11T12:35:24.580Z,3.67
2019-02-11T12:37:54.890Z,3.40
2019-02-11T12:40:24.246Z,3.27
2019-02-11T12:42:54.204Z,3.60
2019-02-11T12:45:24.331Z,3.43
2019-02-11T12:47:53.913Z,3.40
2019-02-11T12:50:23.190Z,4.03
2019-02-11T12:52:52.595Z,3.50
2019-02-11T12:55:21.933Z,3.43
2019-02-11T12:57:51.344Z,3.33
2019-02-11T13:00:22.118Z,3.53
2019-02-11T13:02:51.583Z,3.80
2019-02-11T13:05:23.433Z,3.47
2019-02-11T13:07:52.001Z,3.70
2019-02-11T13:10:21.490Z,3.57
2019-02-11T13:12:50.859Z,3.50
2019-02-11T13:15:52.901Z,2.97
2019-02-11T13:17:51.486Z,3.47
2019-02-11T13:20:21.098Z,3.33
2019-02-11T13:22:50.419Z,3.50
2019-02-11T13:25:19.693Z,3.10
2019-02-11T13:27:49.076Z,3.40
2019-02-11T13:30:19.879Z,3.00
2019-02-11T13:32:49.232Z,3.67
2019-02-11T13:35:18.611Z,3.50
2019-02-11T13:37:48.132Z,3.33
2019-02-11T13:40:17.728Z,3.17
2019-02-11T13:42:47.064Z,3.63
2019-02-11T13:45:17.840Z,3.20
2019-02-11T13:47:58.025Z,3.30
2019-02-11T13:50:23.414Z,3.03
2019-02-11T13:52:53.463Z,3.20
2019-02-11T13:55:22.967Z,3.10
2019-02-11T13:57:52.510Z,3.30
2019-02-11T14:00:26.428Z,3.30
2019-02-11T14:02:56.791Z,3.57
2019-02-11T14:05:26.910Z,3.93
2019-02-11T14:07:56.802Z,3.63
2019-02-11T14:10:26.210Z,3.80
2019-02-11T14:12:55.500Z,3.87
2019-02-11T14:15:24.880Z,3.57
2019-02-11T14:18:10.446Z,3.97
2019-02-11T14:20:26.355Z,4.00
2019-02-11T14:22:55.692Z,3.73
2019-02-11T14:25:40.713Z,3.97
2019-02-11T14:27:56.247Z,3.37
2019-02-11T14:30:25.660Z,4.33
2019-02-11T14:32:54.943Z,4.60
2019-02-11T14:35:24.534Z,3.90
2019-02-11T14:37:53.913Z,4.50
2019-02-11T14:40:23.270Z,4.50
2019-02-11T14:42:52.569Z,4.83
2019-02-11T14:45:21.906Z,4.37
2019-02-11T14:47:51.637Z,4.13
2019-02-11T14:50:20.963Z,3.90
2019-02-11T14:52:50.258Z,3.80
2019-02-11T14:55:19.588Z,4.50
2019-02-11T14:57:48.876Z,4.03
2019-02-11T15:00:20.673Z,4.10
2019-02-11T15:02:50.162Z,4.57
2019-02-11T15:05:19.715Z,4.40
2019-02-11T15:07:49.098Z,4.03
2019-02-11T15:10:19.736Z,4.70
2019-02-11T15:12:49.230Z,5.27
2019-02-11T15:15:18.544Z,3.80
2019-02-11T15:17:47.847Z,3.33
2019-02-11T15:20:17.163Z,3.33
2019-02-11T15:22:46.995Z,3.10
2019-02-11T15:25:16.747Z,2.80
2019-02-11T15:27:46.075Z,2.70
2019-02-11T15:30:17.210Z,2.90
2019-02-11T15:32:46.497Z,3.00
2019-02-11T15:35:18.583Z,3.50
2019-02-11T15:37:47.905Z,2.90
2019-02-11T15:40:19.299Z,3.20
2019-02-11T15:42:48.677Z,3.73
2019-02-11T15:45:17.987Z,2.53
2019-02-11T15:47:47.347Z,2.80
2019-02-11T15:50:17.119Z,2.60
2019-02-11T15:52:46.439Z,2.30
2019-02-11T15:55:17.217Z,2.00
2019-02-11T15:57:46.675Z,2.17
2019-02-11T16:00:20.757Z,2.03
2019-02-11T16:02:51.594Z,1.80
2019-02-11T16:05:21.411Z,2.63
2019-02-11T16:07:50.799Z,1.90
2019-02-11T16:10:22.285Z,2.23
2019-02-11T16:12:51.686Z,1.90
2019-02-11T16:15:20.982Z,2.10
2019-02-11T16:17:51.276Z,2.50
2019-02-11T16:20:20.643Z,2.13
2019-02-11T16:22:49.999Z,2.70
2019-02-11T16:25:19.490Z,2.70
2019-02-11T16:27:49.062Z,2.57
2019-02-11T16:30:19.370Z,2.77
2019-02-11T16:32:48.787Z,2.73
2019-02-11T16:35:18.193Z,2.87
2019-02-11T16:37:47.494Z,2.73
2019-02-11T16:40:21.975Z,3.00
2019-02-11T16:42:51.329Z,2.60
2019-02-11T16:45:20.642Z,3.00
2019-02-11T16:47:49.952Z,2.80
2019-02-11T16:50:19.668Z,3.13
2019-02-11T16:52:48.963Z,2.73
2019-02-11T16:55:18.271Z,2.80
2019-02-11T16:57:47.590Z,2.60
2019-02-11T17:00:17.693Z,2.90
2019-02-11T17:02:47.194Z,3.37
2019-02-11T17:05:16.584Z,2.90
2019-02-11T17:07:45.920Z,2.90
2019-02-11T17:10:15.403Z,3.23
2019-02-11T17:12:44.724Z,3.37
2019-02-11T17:15:15.785Z,5.07
2019-02-11T17:17:45.044Z,3.10
2019-02-11T17:20:14.758Z,3.67
2019-02-11T17:22:44.049Z,2.83
2019-02-11T17:25:13.865Z,3.43
2019-02-11T17:27:43.347Z,3.50
2019-02-11T17:30:15.337Z,3.75
2019-02-11T17:32:44.646Z,4.07
2019-02-11T17:35:13.950Z,3.93
2019-02-11T17:37:43.267Z,3.93
2019-02-11T17:40:15.499Z,4.03
2019-02-11T17:42:44.823Z,4.07
2019-02-11T17:45:16.976Z,4.57
2019-02-11T17:47:46.339Z,4.60
2019-02-11T17:50:15.722Z,4.23
2019-02-11T17:52:45.070Z,4.70
2019-02-11T17:55:14.545Z,4.77
2019-02-11T17:57:44.045Z,5.17
2019-02-11T18:00:24.897Z,4.00
2019-02-11T18:02:54.462Z,4.87
2019-02-11T18:05:23.862Z,4.40
2019-02-11T18:07:53.176Z,5.00
2019-02-11T18:10:22.481Z,4.50
2019-02-11T18:12:51.831Z,4.92
2019-02-11T18:15:21.197Z,5.23
2019-02-11T18:17:50.633Z,5.37
2019-02-11T18:20:19.911Z,4.87
2019-02-11T18:22:49.591Z,5.00
2019-02-11T18:25:19.000Z,6.43
2019-02-11T18:27:48.329Z,5.53
2019-02-11T18:30:17.735Z,5.67
2019-02-11T18:32:47.122Z,5.60
2019-02-11T18:35:16.543Z,6.90
2019-02-11T18:37:45.977Z,5.67
2019-02-11T18:40:15.387Z,5.93
2019-02-11T18:42:44.837Z,5.80
2019-02-11T18:45:14.583Z,5.77
2019-02-11T18:47:43.967Z,5.27
2019-02-11T18:50:14.181Z,4.90
2019-02-11T18:52:43.760Z,5.43
2019-02-11T18:55:13.630Z,5.10
2019-02-11T18:57:43.042Z,4.50
2019-02-11T19:00:16.087Z,4.40
2019-02-11T19:02:45.553Z,5.87
2019-02-11T19:05:16.089Z,4.40
2019-02-11T19:07:45.553Z,4.70
2019-02-11T19:10:15.451Z,4.83
2019-02-11T19:12:44.886Z,4.20
2019-02-11T19:15:14.843Z,4.77
2019-02-11T19:17:44.245Z,4.60
2019-02-11T19:20:14.998Z,4.43
2019-02-11T19:22:44.439Z,4.43
2019-02-11T19:25:14.350Z,7.17
2019-02-11T19:27:44.148Z,9.60
2019-02-11T19:30:20.558Z,14.47
2019-02-11T19:32:50.150Z,9.83
2019-02-11T19:35:19.513Z,10.40
2019-02-11T19:37:49.322Z,5.77
2019-02-11T19:40:18.719Z,5.23
2019-02-11T19:42:48.041Z,5.93
2019-02-11T19:45:18.594Z,6.80
2019-02-11T19:47:48.317Z,6.60
2019-02-11T19:50:17.694Z,7.03
2019-02-11T19:52:47.429Z,7.47
2019-02-11T19:55:17.040Z,6.87
2019-02-11T19:57:46.453Z,6.40
2019-02-11T20:00:18.764Z,6.70
2019-02-11T20:02:48.421Z,6.00
2019-02-11T20:05:17.782Z,6.43
2019-02-11T20:07:47.154Z,6.27
2019-02-11T20:10:16.693Z,6.80
2019-02-11T20:12:46.036Z,6.63
2019-02-11T20:15:17.531Z,6.57
2019-02-11T20:17:47.002Z,5.70
2019-02-11T20:20:18.427Z,5.70
2019-02-11T20:22:47.800Z,6.87
2019-02-11T20:25:17.220Z,7.87
2019-02-11T20:27:46.523Z,6.57
2019-02-11T20:30:17.616Z,7.20
2019-02-11T20:32:47.371Z,6.40
2019-02-11T20:35:16.872Z,6.23
2019-02-11T20:37:46.336Z,5.87
2019-02-11T20:40:17.623Z,5.73
2019-02-11T20:42:46.980Z,6.43
2019-02-11T20:45:19.171Z,6.00
2019-02-11T20:47:48.504Z,5.47
2019-02-11T20:50:17.844Z,5.43
2019-02-11T20:52:47.163Z,5.87
2019-02-11T20:55:16.499Z,4.77
2019-02-11T20:57:45.965Z,6.20
2019-02-11T21:00:19.871Z,5.10
2019-02-11T21:02:49.191Z,5.30
2019-02-11T21:05:18.512Z,5.00
2019-02-11T21:07:47.971Z,6.43
2019-02-11T21:10:17.622Z,5.67
2019-02-11T21:12:47.019Z,6.00
2019-02-11T21:15:16.582Z,5.43
2019-02-11T21:17:45.940Z,5.93
2019-02-11T21:20:18.539Z,5.60
2019-02-11T21:22:48.201Z,6.70
2019-02-11T21:25:17.522Z,6.80
2019-02-11T21:27:47.144Z,6.13
2019-02-11T21:30:17.246Z,5.70
2019-02-11T21:32:46.555Z,5.73
2019-02-11T21:35:15.895Z,5.33
2019-02-11T21:37:45.208Z,6.77
2019-02-11T21:40:14.797Z,4.60
2019-02-11T21:42:44.679Z,5.50
2019-02-11T21:45:14.478Z,5.77
2019-02-11T21:47:44.059Z,5.77
2019-02-11T21:50:14.755Z,5.33
2019-02-11T21:52:44.078Z,7.00
2019-02-11T21:55:13.941Z,8.13
2019-02-11T21:57:43.259Z,7.23
2019-02-11T22:00:15.255Z,6.07
2019-02-11T22:02:45.111Z,5.37
2019-02-11T22:05:14.455Z,5.93
2019-02-11T22:07:43.824Z,5.23
2019-02-11T22:10:14.719Z,4.57
2019-02-11T22:12:44.111Z,4.43
2019-02-11T22:15:14.968Z,5.40
2019-02-11T22:17:44.289Z,4.70
2019-02-11T22:20:15.631Z,3.60
2019-02-11T22:22:45.008Z,4.73
2019-02-11T22:25:14.623Z,4.57
2019-02-11T22:27:43.903Z,3.97
2019-02-11T22:30:15.455Z,4.37
2019-02-11T22:32:45.026Z,4.43
2019-02-11T22:35:14.368Z,5.30
2019-02-11T22:37:43.988Z,4.27
2019-02-11T22:40:13.828Z,4.63
2019-02-11T22:42:43.146Z,4.67
2019-02-11T22:45:15.437Z,4.30
2019-02-11T22:47:44.891Z,5.03
2019-02-11T22:50:14.323Z,4.90
2019-02-11T22:52:43.581Z,4.87
2019-02-11T22:55:13.117Z,4.73
2019-02-11T22:57:42.474Z,5.37
2019-02-11T23:00:25.106Z,6.27
2019-02-11T23:02:54.440Z,6.57
2019-02-11T23:05:23.759Z,5.40
2019-02-11T23:07:53.048Z,7.00
2019-02-11T23:10:22.471Z,5.97
2019-02-11T23:12:51.817Z,4.70
2019-02-11T23:15:21.168Z,4.83
2019-02-11T23:17:50.483Z,4.57
2019-02-11T23:20:19.867Z,5.30
2019-02-11T23:22:49.244Z,5.60
2019-02-11T23:25:18.521Z,4.80
2019-02-11T23:27:47.834Z,5.93
2019-02-11T23:30:17.128Z,6.05
2019-02-11T23:32:46.451Z,5.50
2019-02-11T23:35:15.795Z,5.63
2019-02-11T23:37:45.123Z,5.30
2019-02-11T23:40:14.444Z,4.93
2019-02-11T23:42:43.857Z,5.17
2019-02-11T23:45:13.139Z,5.00
2019-02-11T23:47:42.424Z,5.50
2019-02-11T23:50:11.783Z,4.87
2019-02-11T23:52:41.055Z,5.63
2019-02-11T23:55:10.466Z,5.13
2019-02-11T23:57:39.753Z,5.70
